Time,TemperatureF,DewpointF,PressureIn,WindDirection,WindDirectionDegrees,WindSpeedMPH,WindSpeedGustMPH,Humidity,HourlyPrecipIn,Conditions,Clouds,dailyrainin,SoftwareType,DateUTC
2013-11-14 00:29:00,28.9,24.4,29.91,ESE,111,0.0,3.0,83,0.00,,---,0.00,VWS V14.00,2013-11-14 05:29:00,
2013-11-14 00:59:00,29.0,24.8,29.90,SSW,193,0.0,3.0,84,0.00,,---,0.00,VWS V14.00,2013-11-14 05:59:00,
2013-11-14 01:29:00,29.6,25.4,29.90,SSW,205,6.0,7.0,84,0.00,,---,0.00,VWS V14.00,2013-11-14 06:29:00,
2013-11-14 01:59:00,30.2,26.2,29.89,SSE,150,1.0,4.0,85,0.00,,---,0.00,VWS V14.00,2013-11-14 06:59:00,
2013-11-14 02:29:00,30.9,26.6,29.88,WNW,298,3.0,8.0,84,0.00,,---,0.00,VWS V14.00,2013-11-14 07:29:00,
2013-11-14 02:59:00,31.3,26.8,29.88,SSE,165,0.0,3.0,83,0.00,,---,0.00,VWS V14.00,2013-11-14 07:59:00,
2013-11-14 03:29:00,31.5,26.9,29.88,NNW,340,3.0,4.0,83,0.00,,---,0.00,VWS V14.00,2013-11-14 08:29:00,
2013-11-14 03:59:00,31.6,26.5,29.87,South,184,1.0,4.0,81,0.00,,---,0.00,VWS V14.00,2013-11-14 08:59:00,
2013-11-14 04:29:00,32.0,26.5,29.88,NE,40,1.0,3.0,80,0.00,,---,0.00,VWS V14.00,2013-11-14 09:29:00,
2013-11-14 04:59:00,31.9,26.1,29.88,ESE,111,1.0,3.0,79,0.00,,---,0.00,VWS V14.00,2013-11-14 09:59:00,
2013-11-14 05:29:00,32.0,26.5,29.88,NNE,31,0.0,3.0,80,0.00,,---,0.00,VWS V14.00,2013-11-14 10:29:00,
2013-11-14 05:59:00,31.6,25.9,29.89,East,93,3.0,7.0,79,0.00,,---,0.00,VWS V14.00,2013-11-14 10:59:00,
2013-11-14 06:29:00,31.3,26.2,29.89,NNE,15,0.0,5.0,81,0.00,,---,0.00,VWS V14.00,2013-11-14 11:29:00,
2013-11-14 06:59:00,31.9,26.7,29.90,NNE,24,0.0,2.0,81,0.00,,---,0.00,VWS V14.00,2013-11-14 11:59:00,
2013-11-14 07:29:00,32.1,26.9,29.91,NNW,327,0.0,6.0,81,0.00,,---,0.00,VWS V14.00,2013-11-14 12:29:00,
2013-11-14 07:59:00,32.4,26.9,29.92,WSW,252,0.0,5.0,80,0.00,,---,0.00,VWS V14.00,2013-11-14 12:59:00,
2013-11-14 08:29:00,32.6,26.8,29.93,West,259,1.0,8.0,79,0.00,,---,0.00,VWS V14.00,2013-11-14 13:29:00,
2013-11-14 08:59:00,33.2,28.0,29.92,WSW,250,5.0,5.0,81,0.00,,---,0.00,VWS V14.00,2013-11-14 13:59:00,
2013-11-14 09:29:00,33.8,28.6,29.93,SSW,205,0.0,1.0,81,0.00,,---,0.00,VWS V14.00,2013-11-14 14:29:00,
2013-11-14 09:59:00,34.4,28.9,29.93,ENE,57,2.0,2.0,80,0.00,,---,0.00,VWS V14.00,2013-11-14 14:59:00,
2013-11-14 10:29:00,35.0,29.5,29.93,South,174,0.0,3.0,80,0.00,,---,0.00,VWS V14.00,2013-11-14 15:29:00,
2013-11-14 10:59:00,35.5,30.3,29.92,SW,219,2.0,4.0,81,0.00,,---,0.00,VWS V14.00,2013-11-14 15:59:00,
2013-11-14 11:29:00,35.7,30.1,29.92,West,269,2.0,3.0,80,0.00,,---,0.00,VWS V14.00,2013-11-14 16:29:00,
2013-11-14 11:59:00,35.8,29.9,29.91,SSW,213,0.0,4.0,79,0.00,,---,0.00,VWS V14.00,2013-11-14 16:59:00,
2013-11-14 12:29:00,36.1,30.5,29.91,NE,42,1.0,4.0,80,0.00,,---,0.00,VWS V14.00,2013-11-14 17:29:00,
2013-11-14 12:59:00,36.3,31.3,29.92,West,269,0.0,3.0,82,0.00,,---,0.00,VWS V14.00,2013-11-14 17:59:00,
2013-11-14 13:29:00,37.0,31.7,29.92,SSW,210,1.0,5.0,81,0.00,,---,0.00,VWS V14.00,2013-11-14 18:29:00,
2013-11-14 13:59:00,37.5,32.5,29.92,SE,140,2.0,3.0,82,0.00,,---,0.00,VWS V14.00,2013-11-14 18:59:00,
2013-11-14 14:29:00,37.9,32.6,29.92,SSE,151,1.0,4.0,81,0.00,,---,0.00,VWS V14.00,2013-11-14 19:29:00,
2013-11-14 14:59:00,37.4,32.7,29.93,East,83,0.0,4.0,83,0.00,,---,0.00,VWS V14.00,2013-11-14 19:59:00,
2013-11-14 15:29:00,36.8,32.1,29.94,South,190,0.0,0.0,83,0.00,,---,0.00,VWS V14.00,2013-11-14 20:29:00,
2013-11-14 15:59:00,36.4,32.0,29.95,SSW,209,1.0,6.0,84,0.00,,---,0.00,VWS V14.00,2013-11-14 20:59:00,
2013-11-14 16:29:00,36.0,31.6,29.95,South,181,0.0,0.0,84,0.00,,---,0.00,VWS V14.00,2013-11-14 21:29:00,
2013-11-14 16:59:00,35.8,31.7,29.95,SSW,194,0.0,1.0,85,0.00,,---,0.00,VWS V14.00,2013-11-14 21:59:00,
2013-11-14 17:29:00,36.5,32.4,29.96,SSW,195,0.0,0.0,85,0.00,,---,0.00,VWS V14.00,2013-11-14 22:29:00,
2013-11-14 17:59:00,36.5,32.4,29.96,SW,226,0.0,0.0,85,0.00,,---,0.00,VWS V14.00,2013-11-14 22:59:00,
2013-11-14 18:29:00,36.1,32.0,29.96,SW,226,0.0,0.0,85,0.00,,---,0.00,VWS V14.00,2013-11-14 23:29:00,
2013-11-14 18:59:00,36.6,32.5,29.96,SW,226,0.0,0.0,85,0.00,,---,0.00,VWS V14.00,2013-11-14 23:59:00,
2013-11-14 19:29:00,37.1,32.1,29.96,SW,228,0.0,1.0,82,0.00,,---,0.00,VWS V14.00,2013-11-15 00:29:00,
2013-11-14 19:59:00,36.2,30.9,29.95,SSW,203,0.0,1.0,81,0.00,,---,0.00,VWS V14.00,2013-11-15 00:59:00,
2013-11-14 20:29:00,34.8,30.8,29.95,SW,219,0.0,0.0,85,0.00,,---,0.00,VWS V14.00,2013-11-15 01:29:00,
2013-11-14 20:59:00,33.8,30.1,29.95,South,169,1.0,1.0,86,0.00,,---,0.00,VWS V14.00,2013-11-15 01:59:00,
2013-11-14 21:29:00,33.6,30.1,29.95,SSE,160,0.0,2.0,87,0.00,,---,0.00,VWS V14.00,2013-11-15 02:29:00,
2013-11-14 21:59:00,33.3,30.4,29.94,SE,135,0.0,0.0,89,0.00,,---,0.00,VWS V14.00,2013-11-15 02:59:00,
2013-11-14 22:29:00,33.3,30.7,29.95,SSW,200,0.0,0.0,90,0.00,,---,0.00,VWS V14.00,2013-11-15 03:29:00,
2013-11-14 22:59:00,32.9,30.3,29.94,SSW,192,0.0,0.0,90,0.00,,---,0.00,VWS V14.00,2013-11-15 03:59:00,
2013-11-14 23:29:00,32.9,30.3,29.94,SSW,205,0.0,2.0,90,0.00,,---,0.00,VWS V14.00,2013-11-15 04:29:00,
2013-11-14 23:59:00,32.8,30.2,29.94,SSW,192,0.0,0.0,90,0.00,,---,0.00,VWS V14.00,2013-11-15 04:59:00,